Time;durP1;ratioP1;P1;durP2;ratioP2;P2;SDS_P1;SDS_P2;PMS_P1;PMS_P2;Temp;Humidity;BMP_temperature;BMP_pressure;BME280_temperature;BME280_humidity;BME280_pressure;Samples;Min_cycle;Max_cycle;Signal;HPM_P1;HPM_P2
2021/09/04 00:02:03;;;;;;;2.63;1.60;;;14.90;81.50;;;;;;4942969;28;20118;-80
2021/09/04 00:04:29;;;;;;;3.38;2.00;;;14.90;81.60;;;;;;4962914;28;20107;-81
2021/09/04 00:06:55;;;;;;;3.42;1.90;;;14.90;81.60;;;;;;4968038;28;20446;-80
2021/09/04 00:09:20;;;;;;;4.03;2.40;;;14.90;82.30;;;;;;4946715;29;20058;-80
2021/09/04 00:11:46;;;;;;;2.90;1.80;;;14.80;81.70;;;;;;4944493;29;20070;-80
2021/09/04 00:14:12;;;;;;;2.40;1.48;;;14.80;81.70;;;;;;4947311;28;20061;-80
2021/09/04 00:16:38;;;;;;;2.90;1.38;;;14.80;81.80;;;;;;4960212;28;20055;-81
2021/09/04 00:19:03;;;;;;;2.80;1.67;;;14.80;81.80;;;;;;4925453;29;20043;-80
2021/09/04 00:21:29;;;;;;;2.55;1.45;;;14.80;81.80;;;;;;4942434;28;20509;-80
2021/09/04 00:23:55;;;;;;;3.83;1.92;;;14.70;81.90;;;;;;4960402;28;20066;-80
2021/09/04 00:26:22;;;;;;;3.78;1.80;;;14.70;81.90;;;;;;4960316;28;20043;-81
2021/09/04 00:28:49;;;;;;;3.22;1.83;;;14.70;82.00;;;;;;4959391;28;20070;-81
2021/09/04 00:31:14;;;;;;;2.22;1.45;;;14.70;82.00;;;;;;4961197;28;20043;-81
2021/09/04 00:33:40;;;;;;;3.47;1.60;;;14.70;82.00;;;;;;4964783;28;20047;-81
2021/09/04 00:36:06;;;;;;;5.70;1.70;;;14.60;82.00;;;;;;4945294;28;20058;-81
2021/09/04 00:38:31;;;;;;;3.13;1.85;;;14.60;82.10;;;;;;4950581;28;20050;-81
2021/09/04 00:40:58;;;;;;;3.13;1.70;;;14.60;82.10;;;;;;4961302;28;20046;-80
2021/09/04 00:43:24;;;;;;;3.90;1.70;;;14.60;82.10;;;;;;4962655;28;20047;-81
2021/09/04 00:45:50;;;;;;;4.28;1.67;;;14.50;82.10;;;;;;4945053;29;20050;-80
2021/09/04 00:48:16;;;;;;;3.90;1.90;;;14.50;82.20;;;;;;4962883;28;20051;-80
2021/09/04 00:50:42;;;;;;;3.25;1.85;;;14.50;82.20;;;;;;4947201;28;20039;-81
2021/09/04 00:53:07;;;;;;;3.33;1.77;;;14.50;82.30;;;;;;4949462;29;20039;-80
2021/09/04 00:55:34;;;;;;;3.13;1.55;;;14.40;82.20;;;;;;4963904;28;20047;-81
2021/09/04 00:58:00;;;;;;;2.95;1.63;;;14.50;82.40;;;;;;4965554;28;20051;-81
2021/09/04 01:00:26;;;;;;;2.33;1.40;;;14.50;82.40;;;;;;4951342;29;20071;-81
2021/09/04 01:02:52;;;;;;;2.70;1.60;;;14.40;82.30;;;;;;4948520;29;20133;-80
2021/09/04 01:05:18;;;;;;;3.03;1.67;;;14.40;82.40;;;;;;4964003;28;20089;-80
2021/09/04 01:07:44;;;;;;;2.83;1.40;;;14.40;82.50;;;;;;4963146;28;20493;-80
2021/09/04 01:10:11;;;;;;;2.83;1.60;;;14.30;82.40;;;;;;4935325;28;20070;-81
2021/09/04 01:12:38;;;;;;;2.40;1.27;;;14.40;82.50;;;;;;4953857;28;20044;-81
2021/09/04 01:15:06;;;;;;;2.35;1.38;;;14.30;82.50;;;;;;4948595;28;20055;-82
2021/09/04 01:17:33;;;;;;;2.47;1.48;;;14.30;82.60;;;;;;4962738;28;20170;-81
2021/09/04 01:19:59;;;;;;;2.67;1.52;;;14.40;82.70;;;;;;4968338;28;20040;-81
2021/09/04 01:22:25;;;;;;;3.47;1.58;;;14.30;82.70;;;;;;4955118;29;20039;-81
2021/09/04 01:24:52;;;;;;;3.20;1.50;;;14.20;82.60;;;;;;4947074;28;20043;-82
2021/09/04 01:27:19;;;;;;;2.65;1.58;;;14.20;82.70;;;;;;4949277;28;20046;-81
2021/09/04 01:29:46;;;;;;;1.90;1.20;;;14.30;82.80;;;;;;4951373;28;20050;-82
2021/09/04 01:32:11;;;;;;;2.38;1.48;;;14.20;82.80;;;;;;4943676;28;20506;-81
2021/09/04 01:34:37;;;;;;;2.88;1.50;;;14.20;82.80;;;;;;4958548;28;20074;-82
2021/09/04 01:37:03;;;;;;;2.35;1.52;;;14.10;82.90;;;;;;4941604;28;20035;-82
2021/09/04 01:39:29;;;;;;;3.00;1.60;;;14.20;83.00;;;;;;4930007;28;20050;-82
2021/09/04 01:41:55;;;;;;;3.05;1.58;;;14.10;83.00;;;;;;4941634;29;20047;-81
2021/09/04 01:44:21;;;;;;;3.03;1.60;;;14.10;83.10;;;;;;4957666;28;20450;-81
2021/09/04 01:46:46;;;;;;;2.47;1.55;;;14.10;83.10;;;;;;4945559;28;20050;-81
2021/09/04 01:49:12;;;;;;;2.83;1.50;;;14.10;83.10;;;;;;4945349;28;20047;-80
2021/09/04 01:51:38;;;;;;;2.30;1.38;;;14.00;83.10;;;;;;4964022;28;20111;-81
2021/09/04 01:54:04;;;;;;;3.78;1.60;;;14.00;83.10;;;;;;4950259;28;20116;-81
2021/09/04 01:56:30;;;;;;;3.25;1.75;;;14.00;83.20;;;;;;4964625;28;20044;-81
2021/09/04 01:58:55;;;;;;;3.45;1.60;;;14.00;83.20;;;;;;4964890;28;20035;-81
2021/09/04 02:01:21;;;;;;;3.05;1.60;;;13.90;83.20;;;;;;4978043;28;20053;-81
2021/09/04 02:03:47;;;;;;;2.78;1.60;;;13.90;83.20;;;;;;4973347;28;20062;-81
2021/09/04 02:06:13;;;;;;;2.97;1.70;;;13.90;83.30;;;;;;4965983;28;20043;-81
2021/09/04 02:08:38;;;;;;;3.90;1.70;;;13.90;83.30;;;;;;4962348;28;20478;-81
2021/09/04 02:11:04;;;;;;;3.08;1.50;;;13.80;83.30;;;;;;4944983;28;20454;-81
2021/09/04 02:13:30;;;;;;;2.20;1.45;;;13.80;83.30;;;;;;4966306;28;20070;-81
2021/09/04 02:15:56;;;;;;;3.28;1.60;;;13.80;83.40;;;;;;4959538;28;20406;-82
2021/09/04 02:18:23;;;;;;;2.70;1.80;;;13.80;83.40;;;;;;4951608;28;20035;-81
2021/09/04 02:20:49;;;;;;;3.65;2.03;;;13.80;83.40;;;;;;4961268;28;20073;-81
2021/09/04 02:23:16;;;;;;;3.00;1.65;;;13.90;83.50;;;;;;4963542;28;20497;-81
2021/09/04 02:25:42;;;;;;;3.15;1.67;;;13.80;83.50;;;;;;4944360;28;20039;-80
2021/09/04 02:28:08;;;;;;;3.60;1.77;;;13.80;83.50;;;;;;4943864;28;20039;-81
2021/09/04 02:30:34;;;;;;;3.40;1.80;;;13.70;83.60;;;;;;4963566;28;20039;-81
2021/09/04 02:33:00;;;;;;;3.55;1.77;;;13.80;83.60;;;;;;4946411;28;20131;-82
2021/09/04 02:35:26;;;;;;;3.42;1.73;;;13.70;83.60;;;;;;4947128;28;20055;-82
2021/09/04 02:37:51;;;;;;;3.58;1.73;;;13.70;83.60;;;;;;4943422;28;20042;-82
2021/09/04 02:40:17;;;;;;;4.90;2.13;;;13.70;83.60;;;;;;4959317;28;20405;-81
2021/09/04 02:42:43;;;;;;;2.88;1.80;;;13.60;83.70;;;;;;4943197;28;20113;-81
2021/09/04 02:45:13;;;;;;;4.40;2.00;;;13.60;83.80;;;;;;4957966;28;20047;-81
2021/09/04 02:47:40;;;;;;;4.43;2.22;;;13.50;83.90;;;;;;4955395;28;20053;-81
2021/09/04 02:50:06;;;;;;;3.83;2.20;;;13.50;83.90;;;;;;4945299;28;20063;-81
2021/09/04 02:52:32;;;;;;;3.33;1.60;;;13.50;83.90;;;;;;4942476;28;20039;-81
2021/09/04 02:54:57;;;;;;;3.70;2.00;;;13.50;83.90;;;;;;4960224;28;20111;-82
2021/09/04 02:57:23;;;;;;;3.70;2.08;;;13.50;84.00;;;;;;4929536;28;20051;-82
2021/09/04 02:59:49;;;;;;;3.22;1.90;;;13.50;84.20;;;;;;4945074;28;20142;-81
2021/09/04 03:02:15;;;;;;;3.38;1.70;;;13.40;84.20;;;;;;4967951;28;20050;-81
2021/09/04 03:04:41;;;;;;;2.55;1.35;;;13.40;84.30;;;;;;4948117;28;20048;-81
2021/09/04 03:07:07;;;;;;;3.70;1.90;;;13.40;84.30;;;;;;4968133;28;20493;-81
2021/09/04 03:09:32;;;;;;;3.33;1.75;;;13.40;84.40;;;;;;4950886;28;20405;-81
2021/09/04 03:11:58;;;;;;;3.20;1.70;;;13.40;84.50;;;;;;4948983;28;20190;-81
2021/09/04 03:14:24;;;;;;;2.88;1.60;;;13.40;84.40;;;;;;4950109;28;20058;-81
2021/09/04 03:16:49;;;;;;;3.92;1.95;;;13.30;84.40;;;;;;4968654;28;20051;-81
2021/09/04 03:19:15;;;;;;;3.38;1.58;;;13.40;84.50;;;;;;4960216;28;20134;-81
2021/09/04 03:21:41;;;;;;;3.03;1.80;;;13.30;84.50;;;;;;4964385;28;20046;-81
2021/09/04 03:24:06;;;;;;;3.20;1.77;;;13.40;84.50;;;;;;4967764;28;20043;-81
2021/09/04 03:26:32;;;;;;;2.72;1.65;;;13.30;84.50;;;;;;4943163;28;20109;-81
2021/09/04 03:28:58;;;;;;;4.90;2.00;;;13.40;84.50;;;;;;4957340;28;20060;-80
2021/09/04 03:31:23;;;;;;;2.90;1.75;;;13.40;84.50;;;;;;4964339;28;20043;-81
2021/09/04 03:33:49;;;;;;;4.47;1.92;;;13.40;85.20;;;;;;4942342;29;20051;-81
2021/09/04 03:36:15;;;;;;;3.67;2.00;;;13.40;84.60;;;;;;4956591;28;20043;-81
2021/09/04 03:38:41;;;;;;;3.55;2.05;;;13.40;84.70;;;;;;4958049;28;20090;-81
2021/09/04 03:41:06;;;;;;;3.85;1.58;;;13.40;84.70;;;;;;4942970;28;20063;-80
2021/09/04 03:43:35;;;;;;;4.07;1.75;;;13.40;84.70;;;;;;4971825;28;20050;-81
2021/09/04 03:46:00;;;;;;;3.55;1.67;;;13.40;84.70;;;;;;4959548;28;20079;-82
2021/09/04 03:48:26;;;;;;;4.43;2.13;;;13.50;84.70;;;;;;4960454;28;20042;-80
2021/09/04 03:50:52;;;;;;;4.10;2.05;;;13.50;84.70;;;;;;4958779;28;20058;-81
2021/09/04 03:53:17;;;;;;;3.65;2.08;;;13.40;84.60;;;;;;4960249;28;20502;-81
2021/09/04 03:55:43;;;;;;;3.45;1.75;;;13.50;84.70;;;;;;4942538;28;20074;-81
2021/09/04 03:58:09;;;;;;;4.13;1.88;;;13.50;84.80;;;;;;4958299;28;20035;-80
2021/09/04 04:00:34;;;;;;;2.45;1.45;;;13.50;84.80;;;;;;4940427;29;20564;-80
2021/09/04 04:03:00;;;;;;;3.70;1.63;;;13.50;84.90;;;;;;4942009;28;20398;-80
2021/09/04 04:05:26;;;;;;;2.53;1.55;;;13.50;84.90;;;;;;4957815;28;20047;-81
2021/09/04 04:07:52;;;;;;;2.10;1.50;;;13.60;84.90;;;;;;4944445;29;20031;-82
2021/09/04 04:10:18;;;;;;;2.72;1.60;;;13.50;84.80;;;;;;4945867;28;20453;-81
2021/09/04 04:12:44;;;;;;;4.03;1.90;;;13.50;84.90;;;;;;4943392;29;20090;-81
2021/09/04 04:15:10;;;;;;;2.55;1.67;;;13.60;85.00;;;;;;4945580;28;20058;-81
2021/09/04 04:17:36;;;;;;;2.65;1.48;;;13.60;85.00;;;;;;4942947;28;20039;-81
2021/09/04 04:20:03;;;;;;;3.35;1.90;;;13.60;85.00;;;;;;4962555;28;20464;-80
2021/09/04 04:22:29;;;;;;;2.97;1.65;;;13.60;85.00;;;;;;4943954;29;20129;-81
2021/09/04 04:24:54;;;;;;;3.50;1.90;;;13.60;85.00;;;;;;4944715;28;20043;-81
2021/09/04 04:27:20;;;;;;;2.80;1.50;;;13.60;85.10;;;;;;4945156;28;20094;-80
2021/09/04 04:29:46;;;;;;;3.75;1.38;;;13.60;85.20;;;;;;4927548;28;20043;-80
2021/09/04 04:32:12;;;;;;;3.33;1.70;;;13.60;85.30;;;;;;4945516;28;20135;-81
2021/09/04 04:34:37;;;;;;;3.38;1.67;;;13.60;85.20;;;;;;4921595;29;20050;-81
2021/09/04 04:37:03;;;;;;;3.90;1.70;;;13.50;85.10;;;;;;4927142;29;20039;-81
2021/09/04 04:39:29;;;;;;;3.40;1.80;;;13.70;85.30;;;;;;4943403;29;20525;-80
2021/09/04 04:41:55;;;;;;;3.08;1.58;;;13.60;85.30;;;;;;4910052;29;20051;-80
2021/09/04 04:44:20;;;;;;;3.30;1.70;;;13.70;85.40;;;;;;4928569;29;20044;-81
2021/09/04 04:46:46;;;;;;;2.88;1.40;;;13.60;85.40;;;;;;4922890;29;20080;-80
2021/09/04 04:49:12;;;;;;;3.15;1.60;;;13.60;85.40;;;;;;4907413;29;20040;-81
2021/09/04 04:51:38;;;;;;;2.83;1.60;;;13.60;85.40;;;;;;4924863;29;20099;-79
2021/09/04 04:54:04;;;;;;;2.17;1.30;;;13.60;85.40;;;;;;4930341;29;20136;-80
2021/09/04 04:56:30;;;;;;;2.63;1.50;;;13.70;85.50;;;;;;4925513;29;20055;-80
2021/09/04 04:58:56;;;;;;;3.35;1.60;;;13.70;85.50;;;;;;4911811;29;20055;-80
2021/09/04 05:01:21;;;;;;;2.55;1.60;;;13.70;85.50;;;;;;4889880;29;20050;-80
2021/09/04 05:03:47;;;;;;;2.60;1.40;;;13.70;85.50;;;;;;4922348;29;20051;-81
2021/09/04 05:06:13;;;;;;;3.22;1.60;;;13.70;85.50;;;;;;4934295;29;20058;-80
2021/09/04 05:08:39;;;;;;;2.58;1.60;;;13.70;85.50;;;;;;4924646;29;20126;-79
2021/09/04 05:11:05;;;;;;;2.78;1.58;;;13.70;85.50;;;;;;4909126;29;20082;-81
2021/09/04 05:13:30;;;;;;;3.70;1.75;;;13.70;85.60;;;;;;4956266;28;20498;-80
2021/09/04 05:15:56;;;;;;;3.42;1.80;;;13.70;85.60;;;;;;4943025;28;20121;-80
2021/09/04 05:18:22;;;;;;;2.97;1.63;;;13.70;85.60;;;;;;4944796;29;20043;-80
2021/09/04 05:20:49;;;;;;;3.63;1.80;;;13.80;85.60;;;;;;4946494;28;20044;-81
2021/09/04 05:23:15;;;;;;;3.00;1.50;;;13.70;85.60;;;;;;4962769;28;20040;-80
2021/09/04 05:25:41;;;;;;;3.78;1.83;;;13.70;85.60;;;;;;4948529;28;20049;-80
2021/09/04 05:28:07;;;;;;;3.58;1.90;;;13.70;85.60;;;;;;4950115;28;20047;-80
2021/09/04 05:30:32;;;;;;;3.30;1.80;;;13.80;85.70;;;;;;4950454;28;20054;-79
2021/09/04 05:32:58;;;;;;;3.22;1.80;;;13.70;85.70;;;;;;4952121;28;20039;-80
2021/09/04 05:35:24;;;;;;;3.15;1.80;;;13.80;85.90;;;;;;4949935;28;20071;-80
2021/09/04 05:37:50;;;;;;;3.63;1.73;;;13.80;85.80;;;;;;4971062;28;20051;-80
2021/09/04 05:40:16;;;;;;;3.47;1.65;;;13.80;85.80;;;;;;4943293;28;20050;-80
2021/09/04 05:42:42;;;;;;;2.97;1.73;;;13.80;85.80;;;;;;4945536;28;20035;-81
2021/09/04 05:45:09;;;;;;;3.42;1.73;;;13.80;85.80;;;;;;4947647;29;20039;-80
2021/09/04 05:47:34;;;;;;;2.20;1.48;;;13.80;85.80;;;;;;4963319;28;20039;-81
2021/09/04 05:50:02;;;;;;;4.65;2.00;;;13.80;85.80;;;;;;4948258;28;20129;-80
2021/09/04 05:52:29;;;;;;;4.57;2.00;;;13.80;85.80;;;;;;4945693;28;20510;-81
2021/09/04 05:54:55;;;;;;;4.90;2.20;;;13.80;85.80;;;;;;4948601;29;20043;-82
2021/09/04 05:57:20;;;;;;;3.53;1.92;;;13.90;85.90;;;;;;4927505;29;20043;-81
2021/09/04 05:59:47;;;;;;;3.53;1.73;;;13.90;85.90;;;;;;4941922;29;20056;-80
2021/09/04 06:02:14;;;;;;;4.13;2.00;;;13.90;85.90;;;;;;4929480;29;20117;-81
2021/09/04 06:04:39;;;;;;;4.05;2.00;;;13.90;85.80;;;;;;4941239;29;20107;-81
2021/09/04 06:07:05;;;;;;;5.05;2.25;;;13.90;85.80;;;;;;4943033;29;20048;-82
2021/09/04 06:09:31;;;;;;;2.95;1.60;;;13.90;85.90;;;;;;4931009;29;20054;-80
2021/09/04 06:11:57;;;;;;;2.47;1.52;;;13.90;85.80;;;;;;4929448;29;20053;-81
2021/09/04 06:14:23;;;;;;;3.38;2.03;;;13.80;85.80;;;;;;4943182;29;20043;-81
2021/09/04 06:16:49;;;;;;;3.72;1.92;;;14.00;86.00;;;;;;4941802;29;20087;-81
2021/09/04 06:19:15;;;;;;;3.53;1.80;;;13.90;85.90;;;;;;4936820;29;20040;-81
2021/09/04 06:21:40;;;;;;;3.35;1.52;;;13.90;86.00;;;;;;4935311;29;20039;-81
2021/09/04 06:24:06;;;;;;;4.25;2.17;;;14.00;86.00;;;;;;4947698;29;20054;-81
2021/09/04 06:26:32;;;;;;;3.80;1.90;;;14.00;85.90;;;;;;4949807;29;20601;-81
2021/09/04 06:28:58;;;;;;;4.10;2.10;;;13.90;85.80;;;;;;4932536;28;20039;-81
2021/09/04 06:31:24;;;;;;;4.53;2.05;;;14.00;85.90;;;;;;4970036;28;20059;-82
2021/09/04 06:33:49;;;;;;;5.70;1.80;;;14.00;85.90;;;;;;4971122;28;20118;-84
2021/09/04 06:36:15;;;;;;;4.35;2.30;;;14.00;85.80;;;;;;4955417;28;20040;-81
2021/09/04 06:38:41;;;;;;;3.50;2.00;;;14.10;85.90;;;;;;4948152;28;20142;-81
2021/09/04 06:41:07;;;;;;;2.83;1.70;;;14.10;85.80;;;;;;4965685;28;20031;-82
2021/09/04 06:43:33;;;;;;;3.40;1.67;;;14.00;85.80;;;;;;4959695;28;20051;-83
2021/09/04 06:45:58;;;;;;;3.83;2.20;;;14.10;85.80;;;;;;4956281;28;20066;-81
2021/09/04 06:48:24;;;;;;;3.20;1.60;;;14.00;85.80;;;;;;4956205;28;20035;-80
2021/09/04 06:50:50;;;;;;;3.42;1.77;;;14.10;85.80;;;;;;4975016;28;20110;-80
2021/09/04 06:53:16;;;;;;;3.88;1.77;;;14.20;85.70;;;;;;4957094;28;20036;-80
2021/09/04 06:55:41;;;;;;;3.08;1.75;;;14.20;85.60;;;;;;4924345;29;20126;-80
2021/09/04 06:58:09;;;;;;;3.35;1.98;;;14.20;85.60;;;;;;4916882;29;20064;-80
2021/09/04 07:00:35;;;;;;;3.53;1.92;;;14.30;85.60;;;;;;4906115;29;20048;-80
2021/09/04 07:03:01;;;;;;;2.92;1.60;;;14.40;85.50;;;;;;4918488;28;20071;-81
2021/09/04 07:05:27;;;;;;;2.88;1.83;;;14.40;85.40;;;;;;4943866;29;20036;-81
2021/09/04 07:07:52;;;;;;;2.15;1.38;;;14.40;85.30;;;;;;4940410;29;20119;-82
2021/09/04 07:10:18;;;;;;;3.53;1.73;;;14.50;85.20;;;;;;4927513;28;20036;-81
2021/09/04 07:12:45;;;;;;;3.90;1.80;;;14.50;85.10;;;;;;4937975;29;20035;-81
2021/09/04 07:15:12;;;;;;;3.30;2.13;;;14.50;85.10;;;;;;4952340;29;20052;-81
2021/09/04 07:17:38;;;;;;;2.53;1.55;;;14.50;85.10;;;;;;4956890;29;20052;-82
2021/09/04 07:20:05;;;;;;;3.58;1.75;;;14.50;85.00;;;;;;4947312;29;20049;-80
2021/09/04 07:22:31;;;;;;;3.63;2.05;;;14.60;85.00;;;;;;4926126;29;20027;-80
2021/09/04 07:24:57;;;;;;;2.83;1.63;;;14.60;84.80;;;;;;4911303;29;20063;-80
2021/09/04 07:27:25;;;;;;;3.88;1.70;;;14.70;84.80;;;;;;4956642;28;20154;-81
2021/09/04 07:29:51;;;;;;;3.15;1.90;;;14.70;84.80;;;;;;4994683;28;20057;-81
2021/09/04 07:32:17;;;;;;;2.90;1.50;;;14.70;84.70;;;;;;4974072;28;20426;-80
2021/09/04 07:34:43;;;;;;;3.65;1.88;;;14.80;84.60;;;;;;4996042;28;20119;-80
2021/09/04 07:37:09;;;;;;;2.72;1.55;;;14.70;84.50;;;;;;4979462;28;20035;-80
2021/09/04 07:39:34;;;;;;;3.15;1.70;;;14.80;84.60;;;;;;4991974;28;20101;-81
2021/09/04 07:42:00;;;;;;;3.35;1.70;;;14.80;84.50;;;;;;4959827;28;20480;-81
2021/09/04 07:44:26;;;;;;;3.35;1.88;;;14.90;84.50;;;;;;4944298;28;20051;-81
2021/09/04 07:46:51;;;;;;;2.50;1.50;;;14.90;84.40;;;;;;4958354;28;20130;-82
2021/09/04 07:49:17;;;;;;;3.15;1.60;;;14.80;84.40;;;;;;4943299;29;20071;-82
2021/09/04 07:51:43;;;;;;;1.83;1.30;;;14.90;84.40;;;;;;4942939;28;20487;-82
2021/09/04 07:54:08;;;;;;;3.17;1.65;;;15.00;84.30;;;;;;4940476;28;20051;-82
2021/09/04 07:56:34;;;;;;;2.33;1.45;;;15.00;84.10;;;;;;4940173;29;20118;-81
2021/09/04 07:59:00;;;;;;;2.45;1.70;;;15.00;83.90;;;;;;4941862;28;20108;-82
2021/09/04 08:01:25;;;;;;;2.00;1.40;;;15.10;83.90;;;;;;4941699;29;20379;-82
2021/09/04 08:03:51;;;;;;;3.13;1.58;;;15.20;83.90;;;;;;4951761;28;20039;-82
2021/09/04 08:06:17;;;;;;;3.15;1.67;;;15.10;83.70;;;;;;4941463;28;20515;-82
2021/09/04 08:08:43;;;;;;;2.75;1.42;;;15.20;83.70;;;;;;4941329;28;20043;-82
2021/09/04 08:11:09;;;;;;;2.75;1.70;;;15.20;83.70;;;;;;4953963;28;20483;-82
2021/09/04 08:13:34;;;;;;;2.30;1.30;;;15.30;83.70;;;;;;4939257;28;20050;-82
2021/09/04 08:16:00;;;;;;;2.10;1.40;;;15.40;83.50;;;;;;4938529;28;20047;-83
2021/09/04 08:18:26;;;;;;;1.85;1.17;;;15.40;83.40;;;;;;4939072;29;20070;-82
2021/09/04 08:20:52;;;;;;;2.17;1.23;;;15.50;83.30;;;;;;4956073;28;20090;-81
2021/09/04 08:23:17;;;;;;;2.70;1.40;;;15.60;83.10;;;;;;4940773;28;20406;-82
2021/09/04 08:25:43;;;;;;;2.45;1.50;;;15.60;82.90;;;;;;4939018;28;20058;-82
2021/09/04 08:28:09;;;;;;;2.30;1.50;;;15.70;82.80;;;;;;4941639;28;20461;-82
2021/09/04 08:30:37;;;;;;;2.63;1.30;;;15.70;82.90;;;;;;4956531;28;20078;-81
2021/09/04 08:33:03;;;;;;;2.75;1.70;;;15.70;82.70;;;;;;4941115;28;20050;-81
2021/09/04 08:35:29;;;;;;;2.97;1.67;;;15.80;82.60;;;;;;4942207;28;20124;-81
2021/09/04 08:37:55;;;;;;;2.85;1.60;;;15.90;82.60;;;;;;4939193;28;20047;-81
2021/09/04 08:40:21;;;;;;;2.53;1.67;;;16.00;82.50;;;;;;4940537;28;20039;-81
2021/09/04 08:42:48;;;;;;;3.00;1.80;;;16.00;82.30;;;;;;4946444;28;20121;-81
2021/09/04 08:45:14;;;;;;;2.30;1.58;;;16.10;82.20;;;;;;4957374;28;20043;-79
2021/09/04 08:47:41;;;;;;;2.50;1.50;;;16.10;82.00;;;;;;4964193;28;20074;-80
2021/09/04 08:50:07;;;;;;;3.58;1.92;;;16.20;82.00;;;;;;4950131;28;20035;-78
2021/09/04 08:52:34;;;;;;;2.85;1.88;;;16.30;81.70;;;;;;4941009;28;20094;-79
2021/09/04 08:55:00;;;;;;;2.42;1.50;;;16.40;81.50;;;;;;4944146;28;20054;-79
2021/09/04 08:57:25;;;;;;;2.55;1.73;;;16.50;81.40;;;;;;4958828;28;20035;-79
2021/09/04 09:00:08;;;;;;;3.25;1.77;;;16.50;81.60;;;;;;4937935;28;20537;-79
2021/09/04 09:02:35;;;;;;;3.28;1.63;;;16.60;81.60;;;;;;4935767;29;20614;-81
2021/09/04 09:05:10;;;;;;;2.67;1.63;;;16.70;81.30;;;;;;4903245;29;20376;-82
2021/09/04 09:07:47;;;;;;;2.67;1.63;;;16.70;81.10;;;;;;4917299;29;20538;-83
2021/09/04 09:14:33;;;;;;;2.75;1.70;;;17.00;81.60;;;;;;4897548;29;20059;-84
2021/09/04 09:20:39;;;;;;;3.53;1.70;;;17.40;80.30;;;;;;4797571;29;20110;-79
2021/09/04 09:23:17;;;;;;;2.92;1.52;;;17.50;80.10;;;;;;4772887;30;20046;-85
2021/09/04 09:25:44;;;;;;;1.65;1.45;;;17.40;80.00;;;;;;4770013;30;20117;-82
2021/09/04 09:28:15;;;;;;;2.13;1.38;;;17.50;80.00;;;;;;4780323;30;20066;-82
2021/09/04 09:30:47;;;;;;;2.63;1.75;;;17.60;80.20;;;;;;4794402;29;20060;-81
2021/09/04 09:33:19;;;;;;;2.45;1.52;;;17.60;80.10;;;;;;4778923;29;20080;-79
2021/09/04 09:35:48;;;;;;;2.67;1.75;;;17.60;80.10;;;;;;4768560;30;20044;-81
2021/09/04 09:38:19;;;;;;;3.58;1.67;;;17.80;80.00;;;;;;4769616;30;20980;-82
2021/09/04 09:40:50;;;;;;;2.45;1.67;;;17.60;79.90;;;;;;4779326;30;20121;-81
2021/09/04 09:43:22;;;;;;;2.60;1.60;;;17.60;79.90;;;;;;4777547;30;20055;-81
2021/09/04 09:45:53;;;;;;;2.88;1.80;;;17.60;80.10;;;;;;4776786;29;20056;-82
2021/09/04 09:48:22;;;;;;;2.70;1.80;;;17.60;80.20;;;;;;4801696;29;20522;-82
2021/09/04 09:50:48;;;;;;;3.10;1.77;;;17.60;80.20;;;;;;4861631;29;20048;-79
2021/09/04 09:53:14;;;;;;;3.42;1.98;;;17.60;80.00;;;;;;4917731;29;20072;-80
2021/09/04 09:55:45;;;;;;;2.15;1.50;;;17.40;80.10;;;;;;4917985;29;20083;-80
2021/09/04 09:58:14;;;;;;;3.00;1.80;;;17.50;80.30;;;;;;4919653;29;20123;-80
2021/09/04 10:00:41;;;;;;;3.67;2.22;;;17.50;80.20;;;;;;4908573;29;20044;-80
2021/09/04 10:03:09;;;;;;;3.45;2.00;;;17.50;80.10;;;;;;4927748;28;20084;-80
2021/09/04 10:05:35;;;;;;;2.38;1.80;;;17.40;80.00;;;;;;4947864;28;20051;-79
2021/09/04 10:08:15;;;;;;;2.88;1.83;;;17.50;80.10;;;;;;4957329;28;20046;-83
2021/09/04 10:10:42;;;;;;;2.58;1.55;;;17.50;80.70;;;;;;4941313;28;20042;-79
2021/09/04 10:13:08;;;;;;;2.80;1.80;;;17.60;80.00;;;;;;4954921;28;20078;-81
2021/09/04 10:15:37;;;;;;;2.90;1.80;;;17.50;79.80;;;;;;4947031;28;20055;-79
2021/09/04 10:18:06;;;;;;;3.08;1.75;;;17.60;79.90;;;;;;4938455;28;20074;-80
2021/09/04 10:20:33;;;;;;;3.50;2.08;;;17.50;79.70;;;;;;4923252;28;20437;-84
2021/09/04 10:23:19;;;;;;;2.85;1.60;;;17.60;79.50;;;;;;4940292;28;20070;-81
2021/09/04 10:25:44;;;;;;;2.42;1.45;;;17.60;79.40;;;;;;4941344;28;20035;-85
2021/09/04 10:28:10;;;;;;;2.80;1.85;;;17.70;79.50;;;;;;4958062;28;20043;-81
2021/09/04 10:30:38;;;;;;;2.25;1.50;;;17.70;79.40;;;;;;4925723;29;20042;-78
2021/09/04 10:33:08;;;;;;;2.40;1.70;;;17.70;79.30;;;;;;4965701;28;20061;-85
2021/09/04 10:35:49;;;;;;;2.85;1.80;;;17.60;79.20;;;;;;4927088;28;20046;-83
2021/09/04 10:38:34;;;;;;;3.20;1.80;;;17.60;79.30;;;;;;4943656;28;20043;-85
2021/09/04 10:41:21;;;;;;;4.03;1.88;;;17.70;79.30;;;;;;4947286;28;20485;-87
2021/09/04 10:43:50;;;;;;;3.92;2.05;;;17.70;79.10;;;;;;4948517;28;20043;-84
2021/09/04 10:46:19;;;;;;;3.40;1.85;;;17.70;79.10;;;;;;4935811;28;20119;-84
2021/09/04 10:48:56;;;;;;;2.15;1.60;;;17.80;78.90;;;;;;4966127;28;20042;-83
2021/09/04 10:51:44;;;;;;;2.90;1.80;;;17.70;78.90;;;;;;4948422;28;20054;-83
2021/09/04 10:54:09;;;;;;;2.28;1.70;;;17.70;78.80;;;;;;4969007;28;20129;-83
2021/09/04 10:56:37;;;;;;;2.53;1.60;;;17.80;78.70;;;;;;4969089;28;20051;-84
2021/09/04 10:59:03;;;;;;;2.15;1.50;;;17.90;78.60;;;;;;4949150;28;20493;-83
2021/09/04 11:01:52;;;;;;;2.53;1.60;;;17.80;78.30;;;;;;4966014;28;20054;-83
2021/09/04 11:04:18;;;;;;;2.83;1.52;;;18.00;78.40;;;;;;4964967;28;20049;-85
2021/09/04 11:06:55;;;;;;;2.63;1.67;;;18.10;78.30;;;;;;4948046;28;20043;-83
2021/09/04 11:09:49;;;;;;;2.60;1.73;;;18.00;78.10;;;;;;4944449;28;20043;-84
2021/09/04 11:12:15;;;;;;;2.03;1.33;;;18.10;77.90;;;;;;4976699;28;20042;-84
2021/09/04 11:14:48;;;;;;;2.45;1.42;;;18.20;77.90;;;;;;4950957;28;20386;-84
2021/09/04 11:17:17;;;;;;;2.38;1.50;;;18.20;77.70;;;;;;4970578;28;20051;-83
2021/09/04 11:19:43;;;;;;;3.13;1.80;;;18.30;77.60;;;;;;4970000;28;20097;-82
2021/09/04 11:22:14;;;;;;;2.13;1.50;;;18.40;77.50;;;;;;4928793;28;20093;-82
2021/09/04 11:24:43;;;;;;;1.92;1.30;;;18.50;77.40;;;;;;4961256;28;20043;-83
2021/09/04 11:27:13;;;;;;;2.03;1.30;;;18.50;77.30;;;;;;4943936;28;20047;-84
2021/09/04 11:29:47;;;;;;;2.00;1.38;;;18.60;77.10;;;;;;4961289;28;20047;-83
2021/09/04 11:32:16;;;;;;;3.65;1.20;;;18.60;76.90;;;;;;4943765;28;20043;-82
2021/09/04 11:34:46;;;;;;;3.22;1.67;;;18.70;76.90;;;;;;4944323;28;20097;-81
2021/09/04 11:37:16;;;;;;;1.30;1.20;;;18.80;76.70;;;;;;4960295;28;20046;-82
2021/09/04 11:39:42;;;;;;;2.30;1.20;;;18.90;76.50;;;;;;4960400;28;20126;-81
2021/09/04 11:42:14;;;;;;;2.13;1.13;;;19.00;76.40;;;;;;4946366;28;20066;-81
2021/09/04 11:44:48;;;;;;;2.25;1.40;;;19.00;76.30;;;;;;4959554;28;20046;-82
2021/09/04 11:47:15;;;;;;;2.47;1.38;;;19.10;76.10;;;;;;4946664;29;20051;-83
2021/09/04 11:49:43;;;;;;;2.42;1.30;;;19.10;76.60;;;;;;4941210;28;20050;-83
2021/09/04 11:52:17;;;;;;;1.60;1.02;;;19.20;75.90;;;;;;4956890;28;20821;-83
2021/09/04 11:54:43;;;;;;;3.00;1.40;;;19.30;75.70;;;;;;4940282;29;20061;-83
2021/09/04 11:57:25;;;;;;;2.05;1.38;;;19.40;75.50;;;;;;4940154;28;20556;-83
2021/09/04 12:00:06;;;;;;;2.70;1.40;;;19.40;75.40;;;;;;4940163;28;20052;-83
2021/09/04 12:02:33;;;;;;;1.73;1.30;;;19.40;75.40;;;;;;4923438;28;20397;-83
2021/09/04 12:05:03;;;;;;;3.38;1.70;;;19.50;75.20;;;;;;4939211;28;20122;-82
2021/09/04 12:07:30;;;;;;;2.03;1.40;;;19.60;74.90;;;;;;4961678;28;20039;-85
2021/09/04 12:09:57;;;;;;;3.25;1.27;;;19.70;74.70;;;;;;4957659;28;20054;-87
2021/09/04 12:12:25;;;;;;;1.83;1.10;;;19.70;74.50;;;;;;4924930;28;20039;-83
2021/09/04 12:15:23;;;;;;;1.98;1.38;;;19.80;74.40;;;;;;4940645;28;20183;-88
2021/09/04 12:18:01;;;;;;;1.63;1.15;;;19.90;74.30;;;;;;4969099;28;20078;-83
2021/09/04 12:20:33;;;;;;;2.45;1.52;;;20.00;74.90;;;;;;4924689;29;20094;-82
2021/09/04 12:23:11;;;;;;;2.20;1.30;;;20.10;74.10;;;;;;4935756;29;20044;-83
2021/09/04 12:25:37;;;;;;;2.65;1.50;;;20.00;74.00;;;;;;4924413;29;20182;-84
2021/09/04 12:28:06;;;;;;;2.90;1.48;;;20.10;74.10;;;;;;4936012;29;20047;-84
2021/09/04 12:30:35;;;;;;;2.70;1.65;;;20.20;74.10;;;;;;4909250;29;20055;-84
2021/09/04 12:33:05;;;;;;;2.78;1.60;;;20.20;73.90;;;;;;4909963;29;20514;-85
2021/09/04 12:36:02;;;;;;;1.80;1.40;;;20.30;74.00;;;;;;4906620;29;20051;-86
2021/09/04 12:38:33;;;;;;;2.40;1.30;;;20.30;74.00;;;;;;4936528;29;20067;-86
2021/09/04 12:44:09;;;;;;;1.73;1.10;;;20.40;73.90;;;;;;4942634;29;19969;-83
2021/09/04 12:46:37;;;;;;;1.45;1.08;;;20.40;73.80;;;;;;4892295;29;20044;-82
2021/09/04 12:49:23;;;;;;;2.42;1.33;;;20.50;73.70;;;;;;4930202;29;20044;-87
2021/09/04 12:52:08;;;;;;;2.00;1.20;;;20.50;73.60;;;;;;4903819;29;20103;-81
2021/09/04 12:54:39;;;;;;;2.05;1.15;;;20.50;73.60;;;;;;4918064;29;20052;-78
2021/09/04 12:57:14;;;;;;;2.22;1.45;;;20.50;73.70;;;;;;4919997;29;20056;-84
2021/09/04 12:59:45;;;;;;;1.90;1.27;;;20.60;73.70;;;;;;4899678;29;20074;-84
2021/09/04 13:02:13;;;;;;;1.55;1.05;;;20.60;73.60;;;;;;4899601;29;20040;-80